Richboro, Pennsylvania
Current Conditions -  °F | °C
As of 9:54 PM on Friday 19 Dec 2014 (Local Time) from KPNE Reporting Station
Broken Clouds Broken Clouds  
Wind Chill: 26°   Ceiling: 3100
Heat Index: 32°   Visibility: 10mi
Dew Point: 19°   Wind: 6mph
Humidity: 59%   Direction: 320°NW
Pressure: 30.21"   Gusts: NA
Location:  40.21°N, 75.01°W
Report Text: KPNE 200254Z AUTO 32005KT 10SM BKN031 00/M07 A3021 RMK AO2 SLP230 T00001072 52008 TSNO $
Loading
Personal Weather Stations






























Interactive Weather Map New forecast layout! Learn more

10-Day Weather Forecast

Advertisements
Track Severe Weather on mobile